METAR Data
IDs: Format: Raw Decoded Include TAF

Data at: 1453 UTC 18 Aug 2019

PAMY 181356Z AUTO 05011KT 10SM CLR 13/11 A3042 RMK AO2 SLP303 T01280111
PAMY 181256Z AUTO 05011KT 10SM CLR 13/11 A3044 RMK AO2 SLP308 T01280111
PAMY 180956Z AUTO 05011KT 10SM CLR 13/09 A3047 RMK AO2 SLP319 T01280094
PAMY 180456Z AUTO 01006KT 10SM CLR 15/12 A3049 RMK AO2 SLP328 T01500122
PAMY 180356Z AUTO 03009KT 10SM CLR 16/11 A3050 RMK AO2 SLP329 T01560111
PAMY 180156Z AUTO 03011KT 10SM CLR 16/11 A3051 RMK AO2 SLP334 T01560106
PAMY 180056Z AUTO 03012KT 10SM CLR 16/11 A3052 RMK AO2 SLP339 T01560106
PAMY 172156Z AUTO 04011KT 10SM CLR 14/11 A3054 RMK AO2 SLP345 T01440111
PAMY 171956Z AUTO 04009KT 10SM FEW010 14/11 A3055 RMK AO2 SLP347 T01390111
PAMY 171856Z AUTO 06009KT 10SM CLR 14/11 A3055 RMK AO2 SLP348 T01390111
PAMY 171756Z AUTO 05009KT 10SM BKN009 13/11 A3055 RMK AO2 SLP346 60001 T01330111 10133 20122 53002
PAMY 171656Z AUTO 07006KT 10SM FEW007 SCT013 OVC037 13/12 A3054 RMK AO2 SLP344 T01280122
PAMY 171631Z AUTO 08004KT 10SM SCT009 BKN013 OVC018 13/12 A3054 RMK AO2
PAMY 171556Z AUTO 07007KT 5SM BR OVC009 12/12 A3054 RMK AO2 RAB10E43 CIG 004V012 SLP345 P0001 T01220122
PAMY 171545Z AUTO 07006KT 9SM SCT002 OVC009 12/12 A3054 RMK AO2 RAB10E43 CIG 006V011 P0001
PAMY 171527Z AUTO 07008KT 1SM -RA BR OVC002 13/13 A3054 RMK AO2 RAB10 P0001
PAMY 171520Z AUTO 07009KT 2 1/2SM -RA BR OVC002 13/13 A3054 RMK AO2 RAB10 P0001
PAMY 171456Z AUTO 30004KT 2SM BR OVC002 13/13 A3053 RMK AO2 RAE41 SLP342 P0000 60000 T01280128 58002
PAMY 171335Z AUTO 31005KT 2SM BR OVC004 12/12 A3054 RMK AO2 RAE03 P0000
PAMY 171313Z AUTO 31006KT 5SM BR OVC004 12/12 A3054 RMK AO2 RAE03 CIG 002V007 P0000
PAMY 171256Z AUTO 31005KT 4SM -RA BR BKN002 OVC008 12/12 A3053 RMK AO2 RAB44 SLP342 P0000 T01220122
PAMY 171241Z AUTO 31005KT 3SM BR OVC002 12/12 A3054 RMK AO2 CIG 002V007
PAMY 171147Z AUTO 30007KT 3SM BR OVC002 12/12 A3054 RMK AO2 RAB29E44 CIG 002V006 P0000
PAMY 171110Z AUTO 30007KT 2SM BR OVC002 12/12 A3054 RMK AO2
PAMY 170951Z AUTO 29009KT 2 1/2SM BR OVC002 12/12 A3053 RMK AO2 VIS 2V4
PAMY 170935Z AUTO 27007KT 3SM BR OVC002 12/12 A3053 RMK AO2
PAMY 170933Z AUTO 27008KT 2 1/2SM BR OVC004 12/12 A3053 RMK AO2
PAMY 170856Z AUTO 29007KT 5SM BR OVC004 12/12 A3053 RMK AO2 SLP341 T01220122 401500106 53008
PAMY 170656Z AUTO 27008KT 4SM BR OVC004 13/12 A3051 RMK AO2 SLP335 T01280122
PAMY 170556Z AUTO 28008KT 5SM BR OVC004 13/12 A3051 RMK AO2 SLP333 60000 T01280122 10144 20128 51003
PAMY 170527Z AUTO 29009KT 5SM BR OVC004 13/12 A3051 RMK AO2
PAMY 170356Z AUTO 29013KT 10SM OVC006 14/13 A3050 RMK AO2 SLP332 T01390128
PAMY 170304Z AUTO 26010KT 5SM BR OVC004 14/13 A3050 RMK AO2
PAMY 170256Z AUTO 27010KT 2 1/2SM BR OVC004 14/13 A3050 RMK AO2 CIG 003V007 SLP330 60000 T01390133 50001